createdAt,value
2022-11-12T00:00:05.162Z,21.06
2022-11-12T00:02:53.661Z,21.07
2022-11-12T00:05:40.411Z,21.07
2022-11-12T00:08:27.660Z,21.07
2022-11-12T00:11:15.285Z,21.06
2022-11-12T00:14:02.061Z,21.06
2022-11-12T00:16:49.044Z,21.06
2022-11-12T00:19:37.378Z,21.05
2022-11-12T00:22:24.485Z,21.05
2022-11-12T00:25:11.303Z,21.06
2022-11-12T00:28:03.100Z,21.05
2022-11-12T00:30:50.009Z,21.04
2022-11-12T00:33:41.465Z,21.05
2022-11-12T00:36:29.871Z,21.05
2022-11-12T00:39:16.726Z,21.04
2022-11-12T00:42:03.749Z,21.05
2022-11-12T00:44:50.831Z,21.05
2022-11-12T00:47:37.867Z,21.04
2022-11-12T00:50:25.656Z,21.04
2022-11-12T00:53:14.235Z,21.04
2022-11-12T00:56:02.959Z,21.04
2022-11-12T00:58:50.087Z,21.04
2022-11-12T01:01:36.994Z,21.03
2022-11-12T01:04:24.032Z,21.02
2022-11-12T01:07:11.225Z,21.03
2022-11-12T01:09:59.935Z,21.03
2022-11-12T01:12:46.729Z,21.04
2022-11-12T01:15:33.807Z,21.03
2022-11-12T01:18:20.514Z,21.04
2022-11-12T01:21:08.441Z,21.03
2022-11-12T01:23:55.762Z,21.05
2022-11-12T01:26:43.916Z,21.04
2022-11-12T01:29:31.046Z,21.04
2022-11-12T01:32:18.076Z,21.04
2022-11-12T01:35:05.514Z,21.04
2022-11-12T01:37:52.372Z,21.04
2022-11-12T01:40:39.435Z,21.04
2022-11-12T01:43:27.735Z,21.04
2022-11-12T01:46:20.217Z,21.04
2022-11-12T01:49:11.748Z,21.04
2022-11-12T01:52:09.584Z,21.04
2022-11-12T01:55:01.558Z,21.05
2022-11-12T01:57:53.636Z,21.05
2022-11-12T02:00:42.893Z,21.03
2022-11-12T02:03:30.164Z,21.04
2022-11-12T02:06:18.542Z,21.05
2022-11-12T02:09:06.106Z,21.05
2022-11-12T02:11:53.228Z,21.04
2022-11-12T02:14:39.205Z,21.02
2022-11-12T02:17:27.467Z,21.04
2022-11-12T02:20:15.635Z,21.03
2022-11-12T02:23:04.474Z,21.03
2022-11-12T02:25:51.732Z,21.02
2022-11-12T02:28:38.903Z,21.04
2022-11-12T02:31:26.068Z,21.02
2022-11-12T02:34:13.245Z,21.03
2022-11-12T02:37:00.032Z,21.02
2022-11-12T02:39:48.287Z,21.03
2022-11-12T02:42:35.292Z,21.02
2022-11-12T02:45:22.456Z,21.04
2022-11-12T02:48:09.557Z,21.02
2022-11-12T02:50:56.522Z,21.02
2022-11-12T02:53:43.472Z,21.01
2022-11-12T02:56:31.610Z,21.01
2022-11-12T02:59:18.419Z,21.01
2022-11-12T03:02:05.404Z,21.01
2022-11-12T03:04:52.459Z,21.02
2022-11-12T03:07:39.447Z,21.01
2022-11-12T03:10:26.640Z,21.01
2022-11-12T03:13:15.041Z,20.99
2022-11-12T03:16:02.356Z,21.00
2022-11-12T03:18:49.701Z,21.01
2022-11-12T03:21:36.600Z,21.01
2022-11-12T03:24:23.585Z,20.99
2022-11-12T03:27:10.650Z,21.00
2022-11-12T03:29:58.972Z,21.00
2022-11-12T03:32:45.812Z,21.00
2022-11-12T03:35:33.645Z,21.00
2022-11-12T03:38:21.133Z,21.00
2022-11-12T03:41:08.216Z,20.99
2022-11-12T03:43:55.197Z,21.00
2022-11-12T03:46:44.470Z,21.00
2022-11-12T03:49:31.923Z,20.99
2022-11-12T03:52:18.760Z,21.00
2022-11-12T03:55:06.299Z,20.99
2022-11-12T03:57:54.779Z,21.00
2022-11-12T04:00:41.761Z,20.99
2022-11-12T04:03:30.160Z,21.00
2022-11-12T04:06:34.768Z,21.01
2022-11-12T04:09:21.940Z,21.00
2022-11-12T04:12:22.757Z,21.00
2022-11-12T04:15:10.548Z,21.00
2022-11-12T04:18:29.831Z,21.01
2022-11-12T04:21:36.200Z,20.99
2022-11-12T04:24:44.085Z,21.01
2022-11-12T04:27:33.012Z,21.00
2022-11-12T04:30:19.482Z,21.00
2022-11-12T04:33:06.409Z,21.01
2022-11-12T04:35:53.483Z,21.01
2022-11-12T04:38:41.696Z,21.01
2022-11-12T04:41:48.122Z,21.01
2022-11-12T04:44:49.260Z,21.01
2022-11-12T04:47:38.232Z,21.01
2022-11-12T04:50:25.170Z,21.00
2022-11-12T04:53:12.149Z,21.00
2022-11-12T04:56:00.889Z,21.01
2022-11-12T04:58:48.225Z,21.01
2022-11-12T05:01:35.378Z,21.00
2022-11-12T05:04:22.779Z,21.00
2022-11-12T05:07:10.144Z,21.00
2022-11-12T05:09:57.312Z,20.99
2022-11-12T05:12:45.664Z,21.00
2022-11-12T05:15:32.803Z,21.01
2022-11-12T05:18:19.962Z,21.00
2022-11-12T05:21:20.963Z,21.00
2022-11-12T05:24:17.850Z,20.99
2022-11-12T05:27:17.473Z,20.99
2022-11-12T05:30:07.828Z,21.00
2022-11-12T05:32:55.197Z,21.00
2022-11-12T05:35:42.610Z,21.00
2022-11-12T05:38:29.894Z,21.00
2022-11-12T05:41:20.104Z,20.99
2022-11-12T05:44:07.848Z,20.99
2022-11-12T05:46:56.353Z,20.99
2022-11-12T05:49:43.485Z,20.99
2022-11-12T05:52:30.328Z,20.99
2022-11-12T05:55:17.605Z,20.98
2022-11-12T05:58:06.235Z,20.98
2022-11-12T06:00:53.195Z,20.98
2022-11-12T06:03:41.967Z,20.97
2022-11-12T06:06:29.080Z,20.98
2022-11-12T06:09:16.157Z,20.98
2022-11-12T06:12:06.169Z,20.97
2022-11-12T06:14:53.029Z,21.00
2022-11-12T06:17:39.988Z,20.99
2022-11-12T06:20:28.340Z,20.99
2022-11-12T06:23:15.458Z,20.99
2022-11-12T06:26:02.910Z,20.99
2022-11-12T06:28:50.772Z,20.99
2022-11-12T06:31:37.860Z,20.99
2022-11-12T06:34:24.986Z,20.99
2022-11-12T06:37:13.299Z,21.00
2022-11-12T06:40:00.552Z,21.00
2022-11-12T06:42:47.436Z,21.00
2022-11-12T06:45:34.631Z,21.00
2022-11-12T06:48:21.551Z,21.00
2022-11-12T06:51:11.713Z,20.99
2022-11-12T06:54:00.191Z,21.00
2022-11-12T06:56:47.272Z,21.00
2022-11-12T06:59:34.440Z,21.00
2022-11-12T07:02:21.422Z,21.00
2022-11-12T07:05:08.888Z,21.00
2022-11-12T07:07:55.961Z,20.99
2022-11-12T07:10:44.466Z,21.00
2022-11-12T07:13:32.612Z,21.00
2022-11-12T07:16:19.767Z,21.00
2022-11-12T07:19:07.122Z,21.00
2022-11-12T07:21:54.119Z,21.00
2022-11-12T07:24:41.339Z,21.00
2022-11-12T07:27:31.549Z,21.00
2022-11-12T07:30:18.855Z,21.00
2022-11-12T07:33:05.915Z,21.00
2022-11-12T07:35:58.853Z,21.00
2022-11-12T07:38:46.479Z,21.00
2022-11-12T07:41:33.535Z,20.99
2022-11-12T07:44:21.750Z,20.99
2022-11-12T07:47:08.584Z,21.00
2022-11-12T07:49:55.492Z,20.99
2022-11-12T07:52:42.752Z,20.99
2022-11-12T07:55:29.645Z,20.98
2022-11-12T07:58:16.377Z,21.00
2022-11-12T08:01:10.968Z,20.99
2022-11-12T08:03:58.155Z,20.99
2022-11-12T08:06:45.082Z,20.99
2022-11-12T08:09:32.299Z,20.96
2022-11-12T08:12:19.318Z,20.96
2022-11-12T08:15:06.867Z,20.95
2022-11-12T08:17:55.420Z,20.96
2022-11-12T08:20:42.577Z,20.95
2022-11-12T08:23:30.091Z,20.96
2022-11-12T08:26:19.946Z,20.95
2022-11-12T08:29:08.936Z,20.96
2022-11-12T08:31:56.298Z,20.96
2022-11-12T08:34:44.579Z,20.96
2022-11-12T08:37:31.465Z,20.96
2022-11-12T08:40:19.523Z,20.96
2022-11-12T08:43:07.943Z,20.97
2022-11-12T08:45:55.111Z,20.97
2022-11-12T08:48:42.177Z,20.97
2022-11-12T08:51:30.733Z,20.96
2022-11-12T08:54:17.649Z,20.97
2022-11-12T08:57:04.645Z,20.97
2022-11-12T08:59:51.567Z,20.97
2022-11-12T09:02:39.019Z,20.97
2022-11-12T09:05:25.914Z,20.98
2022-11-12T09:08:16.215Z,20.99
2022-11-12T09:11:03.104Z,20.98
2022-11-12T09:13:49.990Z,20.99
2022-11-12T09:16:37.250Z,20.99
2022-11-12T09:19:24.234Z,21.00
2022-11-12T09:22:11.057Z,20.99
2022-11-12T09:24:59.201Z,20.99
2022-11-12T09:27:48.578Z,20.99
2022-11-12T09:30:36.533Z,21.00
2022-11-12T09:33:26.252Z,20.99
2022-11-12T09:36:13.456Z,21.00
2022-11-12T09:39:00.698Z,20.99
2022-11-12T09:41:49.375Z,20.99
2022-11-12T09:44:41.510Z,21.01
2022-11-12T09:47:33.768Z,21.01
2022-11-12T09:50:25.758Z,21.01
2022-11-12T09:53:18.283Z,21.00
2022-11-12T09:56:08.352Z,21.00
2022-11-12T09:58:57.100Z,21.01
2022-11-12T10:01:55.443Z,20.99
2022-11-12T10:04:52.415Z,21.01
2022-11-12T10:07:50.217Z,21.00
2022-11-12T10:10:45.440Z,21.01
2022-11-12T10:13:47.108Z,21.01
2022-11-12T10:16:50.137Z,21.01
2022-11-12T10:19:50.675Z,21.01
2022-11-12T10:22:47.173Z,21.01
2022-11-12T10:25:36.287Z,21.01
2022-11-12T10:28:33.204Z,21.00
2022-11-12T10:31:24.220Z,21.01
2022-11-12T10:34:18.526Z,21.01
2022-11-12T10:37:07.289Z,21.01
2022-11-12T10:39:54.228Z,21.00
2022-11-12T10:42:58.401Z,21.00
2022-11-12T10:45:46.474Z,21.01
2022-11-12T10:48:35.056Z,21.01
2022-11-12T10:51:30.125Z,21.01
2022-11-12T10:54:29.891Z,21.01
2022-11-12T10:57:22.419Z,21.01
2022-11-12T11:00:16.642Z,21.01
2022-11-12T11:03:07.807Z,21.02
2022-11-12T11:05:58.096Z,21.00
2022-11-12T11:08:48.871Z,21.01
2022-11-12T11:11:36.370Z,21.00
2022-11-12T11:14:32.668Z,21.01
2022-11-12T11:17:20.049Z,21.01
2022-11-12T11:20:16.992Z,21.01
2022-11-12T11:23:07.983Z,21.01
2022-11-12T11:26:02.980Z,21.01
2022-11-12T11:28:56.514Z,21.02
2022-11-12T11:31:53.983Z,21.01
2022-11-12T11:34:52.178Z,21.00
2022-11-12T11:37:47.780Z,21.00
2022-11-12T11:40:40.751Z,21.01
2022-11-12T11:43:53.264Z,21.01
2022-11-12T11:46:53.202Z,21.00
2022-11-12T11:50:10.195Z,21.01
2022-11-12T11:53:11.399Z,21.00
2022-11-12T11:56:03.668Z,21.00
2022-11-12T11:59:04.452Z,20.99
2022-11-12T12:02:05.728Z,21.01
2022-11-12T12:05:00.632Z,21.00
2022-11-12T12:07:56.850Z,21.00
2022-11-12T12:11:09.016Z,21.01
2022-11-12T12:14:10.593Z,21.00
2022-11-12T12:17:06.182Z,21.02
2022-11-12T12:20:03.988Z,21.00
2022-11-12T12:22:56.187Z,21.01
2022-11-12T12:25:45.740Z,21.00
2022-11-12T12:28:40.648Z,21.01
2022-11-12T12:31:33.887Z,21.02
2022-11-12T12:34:26.485Z,21.01
2022-11-12T12:37:18.007Z,21.02
2022-11-12T12:40:12.666Z,21.03
2022-11-12T12:43:06.456Z,21.02
2022-11-12T12:45:54.043Z,21.02
2022-11-12T12:48:45.022Z,21.02
2022-11-12T12:51:34.695Z,21.03
2022-11-12T12:54:57.064Z,21.03
2022-11-12T12:57:43.937Z,21.02
2022-11-12T13:00:38.026Z,21.03
2022-11-12T13:03:50.601Z,21.02
2022-11-12T13:06:40.782Z,21.03
2022-11-12T13:09:28.472Z,21.04
2022-11-12T13:12:23.819Z,21.02
2022-11-12T13:15:14.667Z,21.01
2022-11-12T13:18:01.877Z,21.02
2022-11-12T13:21:12.188Z,21.03
2022-11-12T13:24:10.774Z,21.02
2022-11-12T13:26:58.771Z,21.02
2022-11-12T13:29:47.598Z,21.03
2022-11-12T13:32:38.367Z,21.04
2022-11-12T13:35:31.121Z,21.03
2022-11-12T13:38:20.135Z,21.03
2022-11-12T13:41:15.906Z,21.03
2022-11-12T13:44:08.446Z,21.03
2022-11-12T13:46:56.186Z,21.03
2022-11-12T13:49:44.928Z,21.02
2022-11-12T13:52:32.083Z,21.02
2022-11-12T13:55:21.887Z,21.02
2022-11-12T13:58:20.471Z,21.03
2022-11-12T14:01:08.240Z,21.03
2022-11-12T14:03:55.343Z,21.03
2022-11-12T14:06:45.400Z,21.02
2022-11-12T14:09:47.203Z,21.02
2022-11-12T14:12:54.724Z,21.01
2022-11-12T14:16:03.020Z,21.02
2022-11-12T14:19:22.240Z,21.00
2022-11-12T14:22:15.178Z,21.02
2022-11-12T14:25:03.300Z,21.01
2022-11-12T14:27:52.378Z,21.01
2022-11-12T14:30:45.539Z,21.01
2022-11-12T14:33:33.596Z,21.02
2022-11-12T14:36:21.520Z,21.01
2022-11-12T14:39:12.352Z,21.01
2022-11-12T14:42:01.063Z,21.00
2022-11-12T14:44:49.540Z,21.02
2022-11-12T14:47:36.768Z,21.01
2022-11-12T14:50:30.005Z,21.00
2022-11-12T14:53:25.293Z,21.01
2022-11-12T14:56:19.157Z,21.00
2022-11-12T14:59:06.686Z,21.01
2022-11-12T15:05:25.043Z,21.01
2022-11-12T15:08:13.082Z,20.99
2022-11-12T15:11:21.939Z,21.01
2022-11-12T15:14:14.407Z,21.01
2022-11-12T15:17:01.640Z,21.01
2022-11-12T15:19:49.731Z,21.00
2022-11-12T15:22:36.702Z,21.00
2022-11-12T15:25:25.338Z,21.00
2022-11-12T15:28:23.467Z,21.01
2022-11-12T15:31:19.595Z,20.99
2022-11-12T15:34:27.672Z,21.00
2022-11-12T15:37:26.482Z,20.99
2022-11-12T15:40:16.859Z,21.00
2022-11-12T15:43:04.541Z,21.00
2022-11-12T15:45:53.236Z,21.01
2022-11-12T15:48:40.437Z,20.99
2022-11-12T15:51:27.309Z,20.99
2022-11-12T15:54:15.513Z,20.96
2022-11-12T15:57:02.512Z,20.99
2022-11-12T15:59:55.400Z,20.98
2022-11-12T16:02:43.261Z,20.97
2022-11-12T16:05:30.325Z,20.98
2022-11-12T16:08:17.635Z,20.96
2022-11-12T16:11:26.669Z,20.98
2022-11-12T16:14:15.435Z,20.97
2022-11-12T16:17:02.695Z,20.97
2022-11-12T16:19:49.955Z,20.97
2022-11-12T16:22:37.195Z,20.97
2022-11-12T16:25:29.974Z,20.97
2022-11-12T16:28:20.081Z,20.97
2022-11-12T16:31:07.594Z,20.98
2022-11-12T16:33:54.494Z,20.98
2022-11-12T16:36:41.602Z,20.98
2022-11-12T16:39:28.523Z,20.97
2022-11-12T16:42:15.330Z,20.97
2022-11-12T16:45:03.595Z,20.97
2022-11-12T16:47:52.223Z,20.99
2022-11-12T16:50:39.422Z,20.98
2022-11-12T16:53:26.495Z,20.99
2022-11-12T16:56:15.255Z,20.99
2022-11-12T16:59:02.267Z,21.00
2022-11-12T17:01:50.790Z,20.99
2022-11-12T17:04:37.600Z,20.98
2022-11-12T17:07:24.818Z,20.97
2022-11-12T17:10:12.451Z,20.96
2022-11-12T17:12:59.639Z,20.97
2022-11-12T17:15:46.793Z,20.97
2022-11-12T17:18:35.483Z,20.95
2022-11-12T17:21:24.417Z,20.97
2022-11-12T17:24:11.317Z,20.95
2022-11-12T17:27:00.053Z,20.95
2022-11-12T17:29:47.227Z,20.95
2022-11-12T17:32:34.163Z,20.94
2022-11-12T17:35:22.356Z,20.94
2022-11-12T17:38:09.539Z,20.94
2022-11-12T17:40:57.037Z,20.95
2022-11-12T17:43:44.252Z,20.95
2022-11-12T17:46:32.570Z,20.95
2022-11-12T17:49:20.083Z,20.94
2022-11-12T17:52:08.585Z,20.94
2022-11-12T17:54:55.551Z,20.93
2022-11-12T17:57:42.425Z,20.94
2022-11-12T18:00:29.668Z,20.95
2022-11-12T18:03:16.537Z,20.94
2022-11-12T18:06:03.672Z,20.95
2022-11-12T18:08:56.060Z,20.95
2022-11-12T18:11:45.640Z,20.95
2022-11-12T18:14:32.777Z,20.94
2022-11-12T18:17:19.572Z,20.94
2022-11-12T18:20:07.690Z,20.94
2022-11-12T18:22:54.739Z,20.95
2022-11-12T18:25:43.102Z,20.93
2022-11-12T18:28:30.198Z,20.93
2022-11-12T18:31:17.385Z,20.94
2022-11-12T18:34:04.847Z,20.94
2022-11-12T18:36:51.616Z,20.94
2022-11-12T18:39:38.710Z,20.94
2022-11-12T18:42:26.990Z,20.95
2022-11-12T18:45:14.033Z,20.99
2022-11-12T18:48:00.867Z,21.00
2022-11-12T18:50:47.992Z,21.04
2022-11-12T18:53:35.623Z,21.08
2022-11-12T18:56:22.907Z,21.07
2022-11-12T18:59:12.474Z,21.08
2022-11-12T19:01:59.978Z,21.11
2022-11-12T19:04:47.196Z,21.10
2022-11-12T19:07:34.451Z,21.08
2022-11-12T19:10:21.333Z,21.07
2022-11-12T19:13:08.561Z,21.06
2022-11-12T19:16:02.913Z,21.05
2022-11-12T19:18:51.947Z,21.07
2022-11-12T19:21:39.790Z,21.10
2022-11-12T19:24:26.735Z,21.12
2022-11-12T19:27:13.716Z,21.14
2022-11-12T19:30:03.100Z,21.16
2022-11-12T19:32:52.233Z,21.16
2022-11-12T19:35:40.823Z,21.18
2022-11-12T19:38:28.847Z,21.19
2022-11-12T19:41:19.847Z,21.20
2022-11-12T19:44:07.317Z,21.19
2022-11-12T19:46:54.605Z,21.20
2022-11-12T19:49:42.897Z,21.21
2022-11-12T19:52:30.113Z,21.23
2022-11-12T19:55:17.505Z,21.23
2022-11-12T19:58:04.568Z,21.25
2022-11-12T20:00:51.745Z,21.27
2022-11-12T20:03:39.403Z,21.29
2022-11-12T20:06:29.786Z,21.32
2022-11-12T20:09:17.314Z,21.32
2022-11-12T20:12:04.915Z,21.32
2022-11-12T20:14:52.202Z,21.29
2022-11-12T20:17:39.357Z,21.29
2022-11-12T20:20:26.427Z,21.27
2022-11-12T20:23:14.978Z,21.26
2022-11-12T20:26:07.008Z,21.25
2022-11-12T20:28:54.286Z,21.24
2022-11-12T20:31:41.924Z,21.22
2022-11-12T20:34:29.091Z,21.23
2022-11-12T20:37:16.211Z,21.23
2022-11-12T20:40:05.416Z,21.24
2022-11-12T20:42:52.118Z,21.26
2022-11-12T20:45:38.925Z,21.26
2022-11-12T20:48:26.264Z,21.29
2022-11-12T20:51:23.784Z,21.31
2022-11-12T20:54:12.090Z,21.32
2022-11-12T20:57:02.957Z,21.33
2022-11-12T20:59:51.512Z,21.31
2022-11-12T21:02:38.715Z,21.32
2022-11-12T21:05:26.099Z,21.32
2022-11-12T21:08:13.344Z,21.33
2022-11-12T21:11:02.628Z,21.33
2022-11-12T21:13:51.242Z,21.33
2022-11-12T21:16:38.304Z,21.33
2022-11-12T21:19:25.566Z,21.34
2022-11-12T21:22:14.763Z,21.33
2022-11-12T21:25:01.795Z,21.34
2022-11-12T21:27:48.612Z,21.33
2022-11-12T21:30:37.211Z,21.31
2022-11-12T21:33:24.134Z,21.29
2022-11-12T21:36:16.132Z,21.28
2022-11-12T21:39:03.782Z,21.26
2022-11-12T21:41:51.831Z,21.23
2022-11-12T21:44:38.688Z,21.18
2022-11-12T21:47:26.843Z,21.10
2022-11-12T21:50:13.745Z,21.05
2022-11-12T21:53:00.875Z,21.04
2022-11-12T21:55:48.017Z,21.04
2022-11-12T21:58:35.284Z,21.04
2022-11-12T22:01:25.110Z,21.04
2022-11-12T22:04:18.120Z,21.04
2022-11-12T22:07:05.518Z,21.04
2022-11-12T22:09:56.710Z,21.01
2022-11-12T22:13:04.846Z,21.01
2022-11-12T22:15:52.608Z,21.01
2022-11-12T22:18:40.635Z,21.01
2022-11-12T22:21:36.762Z,21.00
2022-11-12T22:24:25.327Z,20.99
2022-11-12T22:27:12.459Z,21.00
2022-11-12T22:29:59.632Z,21.00
2022-11-12T22:32:46.628Z,21.00
2022-11-12T22:35:33.996Z,21.00
2022-11-12T22:38:22.648Z,20.99
2022-11-12T22:41:12.386Z,21.00
2022-11-12T22:44:01.304Z,20.99
2022-11-12T22:46:48.184Z,20.99
2022-11-12T22:49:35.389Z,20.98
2022-11-12T22:52:22.331Z,20.98
2022-11-12T22:55:10.667Z,20.98
2022-11-12T22:58:00.393Z,20.97
2022-11-12T23:00:47.565Z,20.97
2022-11-12T23:03:35.575Z,20.97
2022-11-12T23:06:22.914Z,20.96
2022-11-12T23:09:16.265Z,20.95
2022-11-12T23:12:05.118Z,20.97
2022-11-12T23:14:52.055Z,20.96
2022-11-12T23:17:39.053Z,20.96
2022-11-12T23:20:26.403Z,20.97
2022-11-12T23:23:13.302Z,20.97
2022-11-12T23:26:05.197Z,20.97
2022-11-12T23:28:53.832Z,20.97
2022-11-12T23:31:41.468Z,20.96
2022-11-12T23:34:28.548Z,20.97
2022-11-12T23:37:16.285Z,20.97
2022-11-12T23:40:03.385Z,20.99
2022-11-12T23:42:50.457Z,20.96
2022-11-12T23:45:38.823Z,20.96
2022-11-12T23:48:26.311Z,20.97
2022-11-12T23:51:15.835Z,20.96
2022-11-12T23:54:02.690Z,20.95
2022-11-12T23:56:49.628Z,20.96
2022-11-12T23:59:36.752Z,20.95
